HEPS

Port Said Airport

Port Said, Egypt
METAR HEPS 181200Z 34005KT CAVOK 27/19 Q1012 NOSIG
Observed Flight Rules
Oct-18 @ 12:00 UTC (33 minutes ago) Visual Flight Rules
Wind Visibility Clouds
340° at 5 knots 10,000+ meters
  • Clear skies
Temperatures Readings
Current 27°C / 81°F
Dewpoint 19°C / 66°F
Humidity 62%
Altimeter 29.88" Hg
Pressure 1012 hPa
Elevation 6
METAR HEPS 181200Z 34005KT CAVOK 27/19 Q1012 NOSIG
Observed Flight Rules
Oct-18 @ 12:00 UTC
(33 minutes ago)
VFR
Wind Visibility
340° at 5 knots 10,000+ meters
Clouds
  • Clear skies
Temperature Dewpoint
27°C / 81°F 19°C / 66°F
Humidity Altimeter Pressure
62% 29.88" Hg 1012 hPa